Time;durP1;ratioP1;P1;durP2;ratioP2;P2;SDS_P1;SDS_P2;PMS_P1;PMS_P2;Temp;Humidity;BMP_temperature;BMP_pressure;BME280_temperature;BME280_humidity;BME280_pressure;Samples;Min_cycle;Max_cycle;Signal;HPM_P1;HPM_P2
2021/11/03 00:00:27;;;;;;;29.65;20.23;;;;;;;8.81;85.27;98815.47;1708323;81;20902;-55
2021/11/03 00:02:53;;;;;;;27.80;18.75;;;;;;;8.80;85.25;98822.26;1709305;81;21392;-56
2021/11/03 00:05:19;;;;;;;27.30;18.92;;;;;;;8.79;85.24;98810.66;1705036;81;21089;-56
2021/11/03 00:07:47;;;;;;;26.25;19.17;;;;;;;8.79;85.27;98824.07;1710448;81;21077;-55
2021/11/03 00:10:14;;;;;;;27.25;19.23;;;;;;;8.79;85.32;98820.05;1707809;81;21835;-56
2021/11/03 00:12:42;;;;;;;32.25;19.60;;;;;;;8.81;85.37;98814.13;1708640;81;20994;-55
2021/11/03 00:15:09;;;;;;;29.82;20.90;;;;;;;8.82;85.27;98815.86;1700444;81;21390;-55
2021/11/03 00:17:37;;;;;;;27.05;19.40;;;;;;;8.83;85.30;98818.07;1705374;81;21528;-55
2021/11/03 00:20:06;;;;;;;31.35;19.55;;;;;;;8.84;85.26;98811.28;1714402;81;21420;-55
2021/11/03 00:22:33;;;;;;;28.10;20.68;;;;;;;8.83;85.26;98810.89;1705738;81;21744;-55
2021/11/03 00:24:59;;;;;;;34.08;22.48;;;;;;;8.84;85.26;98810.41;1706867;81;21532;-55
2021/11/03 00:27:26;;;;;;;30.15;21.12;;;;;;;8.82;85.24;98818.55;1711295;81;21037;-55
2021/11/03 00:29:52;;;;;;;31.82;20.05;;;;;;;8.82;85.20;98817.20;1711018;81;21783;-55
2021/11/03 00:32:18;;;;;;;31.12;20.88;;;;;;;8.82;85.20;98813.66;1711212;81;21084;-55
2021/11/03 00:34:45;;;;;;;38.75;20.27;;;;;;;8.80;85.21;98818.23;1703882;81;21099;-55
2021/11/03 00:37:13;;;;;;;31.73;21.68;;;;;;;8.81;85.28;98810.10;1704589;81;21113;-54
2021/11/03 00:39:40;;;;;;;41.63;22.98;;;;;;;8.83;85.35;98812.70;1706278;81;21220;-55
2021/11/03 00:42:08;;;;;;;28.92;20.32;;;;;;;8.81;85.29;98818.16;1709943;81;21167;-55
2021/11/03 00:44:34;;;;;;;32.58;21.70;;;;;;;8.80;85.32;98815.08;1713987;81;21069;-55
2021/11/03 00:47:02;;;;;;;31.20;20.95;;;;;;;8.81;85.40;98813.26;1709613;81;21101;-55
2021/11/03 00:49:29;;;;;;;34.55;22.70;;;;;;;8.82;85.41;98808.28;1710326;81;21435;-55
2021/11/03 00:51:55;;;;;;;32.25;20.80;;;;;;;8.82;85.44;98811.84;1712098;81;21074;-55
2021/11/03 00:54:23;;;;;;;31.60;21.02;;;;;;;8.83;85.41;98814.91;1704226;81;21085;-56
2021/11/03 00:56:50;;;;;;;28.73;19.65;;;;;;;8.85;85.43;98815.67;1683197;81;21073;-55
2021/11/03 00:59:16;;;;;;;34.25;20.05;;;;;;;8.87;85.42;98817.80;1705932;81;22092;-55
2021/11/03 01:01:45;;;;;;;31.25;20.45;;;;;;;8.87;85.47;98819.62;1708633;81;21168;-55
2021/11/03 01:04:13;;;;;;;32.98;19.80;;;;;;;8.87;85.50;98809.75;1704180;81;21514;-55
2021/11/03 01:06:40;;;;;;;34.20;21.35;;;;;;;8.88;85.46;98808.80;1708644;81;21665;-54
2021/11/03 01:09:08;;;;;;;29.92;18.92;;;;;;;8.90;85.47;98810.06;1709510;81;21053;-55
2021/11/03 01:11:37;;;;;;;32.03;21.87;;;;;;;8.92;85.50;98809.03;1709866;81;21018;-55
2021/11/03 01:14:04;;;;;;;36.70;24.32;;;;;;;8.94;85.55;98813.81;1704417;81;21470;-54
2021/11/03 01:16:31;;;;;;;32.90;21.37;;;;;;;8.95;85.53;98806.63;1708000;81;21089;-54
2021/11/03 01:18:57;;;;;;;30.15;20.57;;;;;;;8.94;85.50;98801.73;1706584;81;21295;-56
2021/11/03 01:21:24;;;;;;;31.97;21.55;;;;;;;8.95;85.44;98798.58;1706236;81;21643;-55
2021/11/03 01:23:51;;;;;;;30.80;19.85;;;;;;;8.95;85.41;98810.66;1709299;81;21405;-55
2021/11/03 01:26:18;;;;;;;32.60;21.57;;;;;;;8.93;85.41;98804.02;1710267;81;21060;-56
2021/11/03 01:28:45;;;;;;;33.53;21.40;;;;;;;8.92;85.47;98801.45;1712208;81;21029;-56
2021/11/03 01:31:12;;;;;;;29.37;19.12;;;;;;;8.92;85.52;98800.98;1705700;81;21333;-55
2021/11/03 01:33:39;;;;;;;29.67;19.80;;;;;;;8.94;85.57;98804.89;1705665;81;21084;-54
2021/11/03 01:36:05;;;;;;;30.48;20.40;;;;;;;8.95;85.60;98806.16;1715800;81;21057;-55
2021/11/03 01:38:32;;;;;;;27.40;18.20;;;;;;;8.99;85.66;98812.23;1710565;81;21024;-55
2021/11/03 01:40:58;;;;;;;33.48;18.62;;;;;;;9.00;85.62;98807.25;1710541;81;21499;-55
2021/11/03 01:43:45;;;;;;;29.40;18.52;;;;;;;9.02;85.61;98807.53;1705312;81;21501;-55
2021/11/03 01:46:26;;;;;;;32.05;19.40;;;;;;;9.02;85.61;98802.16;1707839;81;21092;-55
2021/11/03 01:49:15;;;;;;;33.10;20.50;;;;;;;9.02;85.57;98808.01;1702701;81;22586;-55
2021/11/03 01:51:58;;;;;;;29.77;19.52;;;;;;;9.00;85.64;98815.30;1707609;81;21088;-56
2021/11/03 01:54:40;;;;;;;35.55;20.92;;;;;;;8.99;85.65;98809.07;1710984;81;21077;-55
2021/11/03 01:57:08;;;;;;;28.30;18.65;;;;;;;8.99;85.65;98809.07;1710042;81;20922;-54
2021/11/03 01:59:39;;;;;;;31.95;19.75;;;;;;;9.00;85.76;98808.12;1707442;81;21500;-55
2021/11/03 02:02:06;;;;;;;31.17;20.70;;;;;;;9.02;85.83;98813.38;1706077;81;22174;-54
2021/11/03 02:04:33;;;;;;;28.05;18.10;;;;;;;9.03;85.78;98812.42;1707920;81;20899;-55
2021/11/03 02:07:00;;;;;;;26.62;17.85;;;;;;;9.04;85.83;98811.00;1698509;82;20910;-54
2021/11/03 02:09:27;;;;;;;27.05;18.77;;;;;;;9.06;85.85;98806.42;1708912;81;21413;-54
2021/11/03 02:11:53;;;;;;;26.90;17.98;;;;;;;9.06;85.82;98813.61;1707256;81;21519;-55
2021/11/03 02:14:20;;;;;;;28.12;17.98;;;;;;;9.06;85.85;98814.95;1709355;81;21340;-55
2021/11/03 02:16:48;;;;;;;26.40;18.67;;;;;;;9.07;85.90;98810.84;1700763;82;21398;-54
2021/11/03 02:19:19;;;;;;;26.45;17.85;;;;;;;9.09;85.93;98807.60;1701852;82;21844;-55
2021/11/03 02:21:59;;;;;;;29.32;19.25;;;;;;;9.13;85.92;98804.72;1688065;82;21405;-55
2021/11/03 02:24:33;;;;;;;24.25;16.30;;;;;;;9.13;85.87;98804.72;1679957;83;21038;-55
2021/11/03 02:30:05;;;;;;;20.70;15.60;;;;;;;9.19;85.92;98807.91;1800070;78;22748;-54
2021/11/03 02:32:32;;;;;;;24.80;18.27;;;;;;;9.20;85.98;98810.13;1759213;80;20898;-55
2021/11/03 02:34:59;;;;;;;25.77;18.02;;;;;;;9.22;85.94;98809.56;1747456;81;21125;-55
2021/11/03 02:37:32;;;;;;;25.85;17.82;;;;;;;9.21;85.87;98810.03;1738537;81;20919;-55
2021/11/03 02:40:40;;;;;;;22.40;17.20;;;;;;;9.20;85.86;98810.13;1744464;81;20957;-54
2021/11/03 02:43:26;;;;;;;23.92;15.90;;;;;;;9.19;85.83;98816.44;1742808;81;21355;-54
2021/11/03 02:45:58;;;;;;;22.58;16.35;;;;;;;9.18;85.91;98822.80;1742444;81;21073;-54
2021/11/03 02:48:27;;;;;;;25.45;16.73;;;;;;;9.16;85.93;98825.56;1741161;81;21128;-55
2021/11/03 02:51:16;;;;;;;21.82;15.90;;;;;;;9.16;86.05;98832.75;1737762;81;21017;-54
2021/11/03 02:53:47;;;;;;;21.05;16.67;;;;;;;9.16;86.11;98823.34;1745508;81;21065;-55
2021/11/03 02:56:17;;;;;;;21.57;15.30;;;;;;;9.17;86.17;98832.66;1738773;81;21523;-55
2021/11/03 02:58:43;;;;;;;20.17;15.25;;;;;;;9.18;86.26;98830.38;1741669;81;21030;-54
2021/11/03 03:01:16;;;;;;;22.00;14.35;;;;;;;9.22;86.31;98833.25;1744989;81;21126;-54
2021/11/03 03:03:44;;;;;;;23.60;15.18;;;;;;;9.24;86.29;98833.17;1744814;81;21084;-54
2021/11/03 03:06:14;;;;;;;21.97;15.63;;;;;;;9.26;86.32;98832.61;1747511;81;20914;-55
2021/11/03 03:08:40;;;;;;;20.48;15.50;;;;;;;9.27;86.28;98831.66;1746616;81;21088;-55
2021/11/03 03:11:07;;;;;;;18.23;14.43;;;;;;;9.28;86.38;98823.49;1740657;81;21002;-54
2021/11/03 03:13:34;;;;;;;24.87;16.60;;;;;;;9.32;86.36;98818.83;1712951;81;21060;-54
2021/11/03 03:16:01;;;;;;;24.55;15.58;;;;;;;9.33;86.32;98817.40;1738217;81;21065;-55
2021/11/03 03:18:28;;;;;;;17.12;14.28;;;;;;;9.36;86.35;98806.94;1738615;81;21116;-54
2021/11/03 03:20:54;;;;;;;21.40;15.98;;;;;;;9.37;86.25;98805.98;1738174;81;21072;-56
2021/11/03 03:23:21;;;;;;;20.82;15.45;;;;;;;9.33;86.22;98801.29;1745490;81;21109;-55
2021/11/03 03:25:50;;;;;;;20.15;14.47;;;;;;;9.31;86.23;98815.75;1747022;81;21081;-55
2021/11/03 03:28:18;;;;;;;20.08;15.32;;;;;;;9.31;86.27;98814.41;1744045;81;21215;-54
2021/11/03 03:30:45;;;;;;;19.67;14.98;;;;;;;9.30;86.27;98818.04;1714849;82;21442;-54
2021/11/03 03:33:11;;;;;;;21.10;16.25;;;;;;;9.29;86.35;98819.86;1732425;81;21384;-55
2021/11/03 03:35:38;;;;;;;24.55;15.60;;;;;;;9.29;86.36;98817.65;1731753;82;21380;-55
2021/11/03 03:38:05;;;;;;;20.20;15.10;;;;;;;9.29;86.39;98817.17;1735437;82;21490;-55
2021/11/03 03:40:31;;;;;;;19.32;15.78;;;;;;;9.31;86.43;98821.12;1735157;82;21490;-55
2021/11/03 03:42:58;;;;;;;23.15;15.58;;;;;;;9.29;86.50;98821.20;1681247;83;22408;-54
2021/11/03 03:45:25;;;;;;;22.98;16.35;;;;;;;9.30;86.46;98822.94;1737030;82;21120;-55
2021/11/03 03:47:51;;;;;;;22.90;15.95;;;;;;;9.30;86.47;98824.75;1731315;82;21101;-54
2021/11/03 03:50:18;;;;;;;18.55;15.08;;;;;;;9.32;86.54;98825.06;1735486;82;21164;-55
2021/11/03 03:52:45;;;;;;;20.62;15.38;;;;;;;9.33;86.57;98824.11;1735078;82;21049;-53
2021/11/03 03:55:12;;;;;;;20.77;14.55;;;;;;;9.36;86.58;98814.99;1732785;82;21050;-54
2021/11/03 03:57:39;;;;;;;19.82;14.68;;;;;;;9.38;86.54;98803.22;1733382;82;21323;-54
2021/11/03 04:00:10;;;;;;;22.50;16.48;;;;;;;9.39;86.54;98808.11;1725354;82;21130;-55
2021/11/03 04:02:38;;;;;;;23.05;16.62;;;;;;;9.37;86.51;98816.73;1734449;82;22228;-54
2021/11/03 04:05:06;;;;;;;20.95;16.30;;;;;;;9.35;86.55;98822.69;1738083;82;20946;-53
2021/11/03 04:07:32;;;;;;;21.10;15.05;;;;;;;9.34;86.52;98824.98;1736771;82;21026;-55
2021/11/03 04:10:00;;;;;;;23.05;16.37;;;;;;;9.32;86.58;98825.06;1730602;82;21125;-54
2021/11/03 04:12:29;;;;;;;21.57;15.78;;;;;;;9.31;86.63;98826.48;1734928;82;21423;-54
2021/11/03 04:14:56;;;;;;;22.90;16.97;;;;;;;9.28;86.70;98827.52;1730519;82;21937;-55
2021/11/03 04:17:22;;;;;;;20.72;15.53;;;;;;;9.29;86.82;98829.26;1730524;82;21124;-55
2021/11/03 04:19:50;;;;;;;22.37;14.65;;;;;;;9.31;86.92;98827.36;1736222;82;21622;-55
2021/11/03 04:22:17;;;;;;;24.55;16.02;;;;;;;9.32;86.96;98822.85;1732481;82;21369;-55
2021/11/03 04:24:43;;;;;;;19.45;15.68;;;;;;;9.33;87.00;98828.14;1736077;82;21072;-54
2021/11/03 04:27:10;;;;;;;21.95;16.52;;;;;;;9.33;87.05;98827.27;1733526;82;22193;-54
2021/11/03 04:29:37;;;;;;;28.87;15.93;;;;;;;9.33;87.06;98836.20;1733093;82;21527;-55
2021/11/03 04:32:04;;;;;;;21.90;16.15;;;;;;;9.34;87.08;98839.28;1728840;82;21553;-54
2021/11/03 04:34:31;;;;;;;22.75;15.98;;;;;;;9.33;87.12;98836.67;1729421;82;21081;-54
2021/11/03 04:37:00;;;;;;;24.75;17.12;;;;;;;9.33;87.18;98834.86;1726182;82;21030;-55
2021/11/03 04:39:27;;;;;;;20.77;16.80;;;;;;;9.35;87.23;98837.46;1730824;82;21109;-55
2021/11/03 04:41:53;;;;;;;24.12;17.27;;;;;;;9.33;87.25;98837.55;1734174;82;21020;-54
2021/11/03 04:44:20;;;;;;;22.67;17.17;;;;;;;9.33;87.31;98840.23;1726493;82;21045;-54
2021/11/03 04:46:47;;;;;;;24.00;16.80;;;;;;;9.34;87.34;98846.47;1725147;82;21356;-55
2021/11/03 04:49:14;;;;;;;21.12;16.87;;;;;;;9.34;87.38;98847.81;1727822;82;21570;-55
2021/11/03 04:51:41;;;;;;;26.50;16.70;;;;;;;9.32;87.44;98848.37;1729151;82;21128;-54
2021/11/03 04:54:08;;;;;;;26.85;16.67;;;;;;;9.31;87.45;98852.00;1727528;82;21128;-55
2021/11/03 04:56:36;;;;;;;21.42;16.17;;;;;;;9.30;87.52;98844.89;1728010;82;21128;-54
2021/11/03 04:59:03;;;;;;;22.07;16.67;;;;;;;9.29;87.59;98848.05;1730448;82;20950;-54
2021/11/03 05:01:30;;;;;;;18.62;14.73;;;;;;;9.31;87.66;98849.31;1710153;82;20942;-54
2021/11/03 05:03:58;;;;;;;18.50;15.15;;;;;;;9.32;87.71;98843.00;1731776;82;22152;-54
2021/11/03 05:06:30;;;;;;;19.70;14.95;;;;;;;9.35;87.73;98846.86;1707671;82;20930;-54
2021/11/03 05:08:58;;;;;;;20.80;14.83;;;;;;;9.36;87.76;98848.56;1733572;82;20910;-54
2021/11/03 05:11:24;;;;;;;15.38;12.55;;;;;;;9.37;87.68;98857.87;1690453;83;21975;-55
2021/11/03 05:13:52;;;;;;;16.95;12.23;;;;;;;9.38;87.72;98848.00;1731295;82;21018;-55
2021/11/03 05:16:22;;;;;;;16.87;12.53;;;;;;;9.39;87.71;98852.42;1732212;82;21113;-55
2021/11/03 05:18:50;;;;;;;13.88;11.65;;;;;;;9.39;87.70;98854.64;1715130;82;20895;-55
2021/11/03 05:21:17;;;;;;;13.13;10.50;;;;;;;9.42;87.78;98854.95;1731561;82;20962;-55
2021/11/03 05:23:44;;;;;;;12.25;10.05;;;;;;;9.45;87.78;98853.41;1734577;82;20974;-56
2021/11/03 05:26:12;;;;;;;13.85;10.98;;;;;;;9.46;87.71;98848.42;1731667;82;20934;-54
2021/11/03 05:28:40;;;;;;;10.60;8.25;;;;;;;9.47;87.68;98845.66;1716869;82;21137;-54
2021/11/03 05:31:07;;;;;;;10.43;8.00;;;;;;;9.48;87.68;98847.87;1731473;82;21753;-53
2021/11/03 05:33:34;;;;;;;9.50;8.48;;;;;;;9.52;87.69;98853.94;1731031;82;21377;-54
2021/11/03 05:36:00;;;;;;;10.50;8.50;;;;;;;9.53;87.60;98868.60;1730894;82;20907;-55
2021/11/03 05:38:26;;;;;;;12.23;9.58;;;;;;;9.53;87.56;98875.31;1732629;82;20930;-54
2021/11/03 05:40:53;;;;;;;11.03;9.48;;;;;;;9.52;87.57;98878.98;1733661;82;21064;-55
2021/11/03 05:43:19;;;;;;;10.32;9.20;;;;;;;9.52;87.53;98886.18;1729740;82;21045;-55
2021/11/03 05:45:45;;;;;;;8.98;7.65;;;;;;;9.52;87.52;98900.95;1727721;82;21352;-55
2021/11/03 05:48:12;;;;;;;9.38;8.55;;;;;;;9.53;87.49;98912.09;1722977;82;21073;-55
2021/11/03 05:50:38;;;;;;;8.13;7.42;;;;;;;9.53;87.51;98905.38;1728278;82;21409;-55
2021/11/03 05:53:04;;;;;;;8.50;7.67;;;;;;;9.53;87.51;98906.21;1729238;82;21482;-54
2021/11/03 05:55:31;;;;;;;8.65;7.50;;;;;;;9.55;87.51;98911.50;1732262;82;21485;-55
2021/11/03 05:57:57;;;;;;;9.95;7.65;;;;;;;9.57;87.60;98921.22;1730074;82;21385;-55
2021/11/03 06:00:34;;;;;;;9.08;7.92;;;;;;;9.58;87.57;98926.98;1731413;82;21579;-55
2021/11/03 06:03:01;;;;;;;7.10;5.80;;;;;;;9.60;87.53;98927.77;1730678;82;22383;-55
2021/11/03 06:05:28;;;;;;;5.72;5.20;;;;;;;9.63;87.54;98934.77;1729923;82;21550;-55
2021/11/03 06:08:06;;;;;;;8.60;7.03;;;;;;;9.64;87.51;98937.84;1730007;82;21283;-55
2021/11/03 06:10:40;;;;;;;5.25;4.75;;;;;;;9.66;87.50;98935.95;1725803;82;21132;-55
2021/11/03 06:13:09;;;;;;;6.50;4.95;;;;;;;9.67;87.49;98940.38;1726052;82;21402;-55
2021/11/03 06:15:36;;;;;;;5.60;4.65;;;;;;;9.68;87.43;98940.29;1731422;82;21972;-55
2021/11/03 06:18:04;;;;;;;4.10;3.70;;;;;;;9.70;87.40;98949.10;1733418;82;21111;-55
2021/11/03 06:20:30;;;;;;;4.47;3.65;;;;;;;9.70;87.40;98949.58;1728974;82;21682;-55
2021/11/03 06:22:57;;;;;;;3.17;2.50;;;;;;;9.70;87.36;98946.89;1727463;82;21077;-55
2021/11/03 06:25:25;;;;;;;2.90;2.70;;;;;;;9.70;87.37;98955.82;1728521;82;21423;-54
2021/11/03 06:27:54;;;;;;;3.77;2.90;;;;;;;9.71;87.42;98955.34;1727068;82;21065;-55
2021/11/03 06:30:24;;;;;;;2.98;2.77;;;;;;;9.72;87.45;98953.05;1729870;82;21136;-55
2021/11/03 06:32:51;;;;;;;3.40;2.47;;;;;;;9.73;87.49;98951.63;1728101;82;21057;-55
2021/11/03 06:35:18;;;;;;;3.52;2.62;;;;;;;9.74;87.48;98951.15;1730076;82;21296;-55
2021/11/03 06:37:45;;;;;;;2.42;2.22;;;;;;;9.73;87.51;98955.66;1691541;83;21367;-55
2021/11/03 06:40:15;;;;;;;2.45;2.25;;;;;;;9.73;87.58;98961.03;1727101;82;21515;-56
2021/11/03 06:42:42;;;;;;;2.15;1.95;;;;;;;9.75;87.58;98964.51;1729208;82;21103;-55
2021/11/03 06:45:08;;;;;;;2.17;1.98;;;;;;;9.76;87.57;98964.03;1724786;82;21069;-55
2021/11/03 06:47:35;;;;;;;2.08;1.87;;;;;;;9.76;87.60;98962.21;1729191;82;21007;-55
2021/11/03 06:50:01;;;;;;;2.33;2.22;;;;;;;9.78;87.64;98962.13;1725070;82;21057;-55
2021/11/03 06:52:31;;;;;;;3.02;1.72;;;;;;;9.78;87.66;98965.66;1727385;82;21125;-55
2021/11/03 06:54:58;;;;;;;2.77;2.58;;;;;;;9.79;87.67;98968.73;1732292;82;21212;-56
2021/11/03 06:57:24;;;;;;;3.10;2.75;;;;;;;9.80;87.74;98970.95;1727746;82;21081;-56
2021/11/03 06:59:54;;;;;;;2.50;2.30;;;;;;;9.81;87.76;98977.58;1729335;82;21081;-55
2021/11/03 07:02:20;;;;;;;2.77;2.58;;;;;;;9.83;87.79;98977.02;1728706;82;21045;-55
2021/11/03 07:04:47;;;;;;;2.65;2.45;;;;;;;9.86;87.86;98984.92;1729067;82;21121;-55
2021/11/03 07:07:13;;;;;;;3.05;2.85;;;;;;;9.91;87.87;98984.64;1730446;82;22644;-56
2021/11/03 07:09:40;;;;;;;2.75;2.55;;;;;;;9.93;87.87;98985.91;1731347;82;21053;-55
2021/11/03 07:12:07;;;;;;;3.12;2.92;;;;;;;9.96;87.88;98978.98;1729377;82;21520;-55
2021/11/03 07:14:35;;;;;;;3.87;2.58;;;;;;;9.96;87.85;98983.89;1729518;82;21053;-55
2021/11/03 07:17:02;;;;;;;5.45;4.03;;;;;;;9.97;87.87;98991.00;1730634;82;21082;-55
2021/11/03 07:19:30;;;;;;;3.05;2.85;;;;;;;9.98;87.88;98987.36;1726764;82;21335;-55
2021/11/03 07:21:56;;;;;;;5.45;3.02;;;;;;;10.00;87.94;98991.31;1729014;82;21125;-55
2021/11/03 07:24:22;;;;;;;3.08;2.40;;;;;;;10.00;87.93;98989.97;1726063;82;22571;-55
2021/11/03 07:26:49;;;;;;;3.47;3.17;;;;;;;10.03;87.98;98988.45;1727998;82;21531;-55
2021/11/03 07:29:15;;;;;;;3.58;3.27;;;;;;;10.06;88.01;98982.88;1725915;82;21547;-55
2021/11/03 07:31:41;;;;;;;3.70;3.17;;;;;;;10.08;88.06;98981.84;1728638;82;21107;-55
2021/11/03 07:34:08;;;;;;;3.72;3.42;;;;;;;10.10;88.11;98985.32;1726601;82;21458;-55
2021/11/03 07:36:34;;;;;;;2.95;2.75;;;;;;;10.12;88.09;98990.11;1729871;82;21115;-55
2021/11/03 07:39:01;;;;;;;2.77;2.58;;;;;;;10.16;88.12;98989.46;1729640;82;21057;-55
2021/11/03 07:41:27;;;;;;;3.67;3.42;;;;;;;10.18;88.14;98994.31;1727924;82;21138;-55
2021/11/03 07:43:53;;;;;;;3.85;2.85;;;;;;;10.20;88.14;98994.63;1730131;82;21605;-55
2021/11/03 07:46:21;;;;;;;4.62;3.90;;;;;;;10.23;88.15;99001.14;1727513;82;21578;-55
2021/11/03 07:48:48;;;;;;;3.50;3.20;;;;;;;10.23;88.12;99003.84;1726317;82;21050;-56
2021/11/03 07:51:16;;;;;;;3.10;2.90;;;;;;;10.24;88.09;99003.36;1730640;82;21551;-56
2021/11/03 07:53:45;;;;;;;4.03;3.30;;;;;;;10.27;88.18;99002.33;1731746;82;21105;-55
2021/11/03 07:56:15;;;;;;;3.52;3.33;;;;;;;10.30;88.25;99003.47;1731627;82;21145;-55
2021/11/03 07:58:42;;;;;;;3.85;3.08;;;;;;;10.32;88.26;98999.73;1733644;82;21108;-56
2021/11/03 08:01:08;;;;;;;4.33;2.77;;;;;;;10.34;88.28;99005.03;1732467;82;21081;-55
2021/11/03 08:03:35;;;;;;;6.08;4.62;;;;;;;10.35;88.28;99006.30;1729670;82;20954;-55
2021/11/03 08:06:02;;;;;;;5.85;4.35;;;;;;;10.39;88.34;99006.96;1733356;82;20930;-55
2021/11/03 08:08:31;;;;;;;4.85;3.70;;;;;;;10.43;88.40;99009.87;1730511;82;21100;-56
2021/11/03 08:10:59;;;;;;;5.60;3.60;;;;;;;10.46;88.40;99008.36;1735164;82;20942;-56
2021/11/03 08:13:27;;;;;;;4.95;4.35;;;;;;;10.49;88.43;99010.37;1730216;82;20903;-56
2021/11/03 08:15:56;;;;;;;6.37;5.72;;;;;;;10.53;88.43;99011.94;1730680;82;20966;-56
2021/11/03 08:18:26;;;;;;;6.20;4.90;;;;;;;10.58;88.46;99011.64;1724481;82;20891;-56
2021/11/03 08:20:52;;;;;;;6.30;5.47;;;;;;;10.62;88.49;99010.52;1732095;82;21039;-56
2021/11/03 08:23:18;;;;;;;6.47;5.87;;;;;;;10.67;88.47;99010.23;1732826;82;20891;-55
2021/11/03 08:25:45;;;;;;;11.93;8.85;;;;;;;10.70;88.43;99012.27;1732475;82;20980;-55
2021/11/03 08:28:11;;;;;;;21.55;16.20;;;;;;;10.74;88.45;99015.62;1730964;82;20903;-56
2021/11/03 08:30:46;;;;;;;10.95;9.85;;;;;;;10.78;88.45;99011.32;1731573;82;20973;-56
2021/11/03 08:33:18;;;;;;;9.60;6.58;;;;;;;10.84;88.45;99019.48;1738697;81;20910;-56
2021/11/03 08:35:47;;;;;;;8.43;6.90;;;;;;;10.86;88.37;99019.80;1737085;82;20914;-56
2021/11/03 08:38:21;;;;;;;9.73;7.70;;;;;;;10.89;88.33;99020.94;1737548;81;20959;-55
2021/11/03 08:40:44;;;;;;;8.98;7.15;;;;;;;10.91;88.25;99021.71;1714820;82;20887;-56
2021/11/03 08:43:13;;;;;;;9.18;7.70;;;;;;;10.93;88.19;99031.92;1738527;82;21385;-55
2021/11/03 08:45:39;;;;;;;9.15;7.85;;;;;;;10.96;88.19;99040.30;1739377;82;21097;-56
2021/11/03 08:48:06;;;;;;;11.50;8.08;;;;;;;10.98;88.15;99038.35;1739169;81;21113;-56
2021/11/03 08:50:35;;;;;;;11.30;9.15;;;;;;;11.00;88.16;99042.70;1739289;82;20993;-56
2021/11/03 08:53:04;;;;;;;12.68;10.45;;;;;;;11.04;88.04;99046.08;1735350;82;21097;-56
2021/11/03 08:55:31;;;;;;;14.10;9.28;;;;;;;11.03;87.90;99059.16;1734109;82;21044;-55
2021/11/03 08:58:00;;;;;;;10.98;9.75;;;;;;;11.04;87.89;99060.89;1737025;82;21462;-55
2021/11/03 09:00:30;;;;;;;11.18;9.63;;;;;;;11.06;87.85;99063.50;1734842;82;21065;-56
2021/11/03 09:02:57;;;;;;;11.55;9.50;;;;;;;11.08;87.80;99062.42;1734944;82;20950;-55
2021/11/03 09:05:24;;;;;;;10.98;9.78;;;;;;;11.10;87.78;99061.85;1735225;82;21004;-55
2021/11/03 09:07:50;;;;;;;14.60;10.85;;;;;;;11.12;87.70;99065.33;1731697;82;21405;-55
2021/11/03 09:10:22;;;;;;;21.07;12.43;;;;;;;11.14;87.65;99072.84;1734891;82;21005;-55
2021/11/03 09:12:49;;;;;;;13.32;11.38;;;;;;;11.17;87.57;99073.98;1733395;82;21038;-56
2021/11/03 09:15:17;;;;;;;12.13;10.85;;;;;;;11.20;87.51;99069.77;1731082;82;21065;-55
2021/11/03 09:17:43;;;;;;;14.50;11.88;;;;;;;11.23;87.47;99071.37;1735584;81;20972;-55
2021/11/03 09:20:12;;;;;;;13.08;10.88;;;;;;;11.27;87.45;99071.59;1734784;81;21049;-55
2021/11/03 09:22:39;;;;;;;13.28;11.10;;;;;;;11.31;87.40;99071.30;1730778;82;21512;-55
2021/11/03 09:25:09;;;;;;;21.85;15.15;;;;;;;11.34;87.30;99071.11;1735071;82;21358;-55
2021/11/03 09:27:36;;;;;;;17.90;14.15;;;;;;;11.36;87.21;99073.23;1734938;82;20973;-55
2021/11/03 09:30:03;;;;;;;18.05;14.03;;;;;;;11.39;87.18;99076.23;1740380;82;21030;-55
2021/11/03 09:32:34;;;;;;;17.27;13.62;;;;;;;11.42;87.08;99079.20;1724630;82;21091;-55
2021/11/03 09:35:02;;;;;;;16.23;14.38;;;;;;;11.45;86.99;99077.19;1725794;82;21085;-56
2021/11/03 09:37:33;;;;;;;17.20;14.68;;;;;;;11.49;86.97;99078.72;1720324;82;21053;-55
2021/11/03 09:39:59;;;;;;;20.12;14.78;;;;;;;11.55;87.00;99084.22;1721144;82;21463;-55
2021/11/03 09:42:26;;;;;;;19.57;14.55;;;;;;;11.60;86.96;99090.18;1723946;82;21557;-55
2021/11/03 09:44:55;;;;;;;21.77;16.02;;;;;;;11.65;86.97;99093.47;1723125;82;21109;-55
2021/11/03 09:47:26;;;;;;;18.62;15.18;;;;;;;11.71;86.86;99097.12;1726129;82;21795;-55
2021/11/03 09:50:02;;;;;;;23.00;20.20;;;;;;;11.75;86.77;99098.20;1726449;82;21271;-56
2021/11/03 09:52:38;;;;;;;25.30;20.30;;;;;;;11.85;86.46;99102.52;1722986;82;20938;-56
2021/11/03 09:55:22;;;;;;;20.75;18.55;;;;;;;11.85;86.46;99102.52;1725532;82;21034;-56
2021/11/03 09:58:28;;;;;;;22.15;17.17;;;;;;;11.89;86.05;99111.30;1721578;82;21042;-55
2021/11/03 10:01:17;;;;;;;21.50;18.00;;;;;;;11.89;86.05;99111.30;1721912;82;21109;-56
2021/11/03 10:04:02;;;;;;;24.32;19.50;;;;;;;11.89;85.77;99122.95;1722307;82;21062;-55
2021/11/03 10:06:49;;;;;;;22.55;18.23;;;;;;;11.89;85.71;99112.17;1721646;82;21153;-56
2021/11/03 10:09:15;;;;;;;20.17;17.42;;;;;;;11.90;85.59;99119.30;1722661;82;21598;-56
2021/11/03 10:11:46;;;;;;;24.57;17.45;;;;;;;11.96;85.51;99119.38;1724151;82;21129;-56
2021/11/03 10:14:13;;;;;;;19.60;17.35;;;;;;;11.99;85.46;99118.69;1697018;82;21837;-56
2021/11/03 10:16:44;;;;;;;19.37;16.37;;;;;;;12.07;85.24;99114.17;1724986;82;22168;-55
2021/11/03 10:19:20;;;;;;;21.42;17.87;;;;;;;12.18;84.95;99118.85;1719603;82;21070;-55
2021/11/03 10:21:55;;;;;;;;;;;;;;;12.18;84.95;99118.85;1725125;81;21564;-56
2021/11/03 10:24:30;;;;;;;22.13;17.10;;;;;;;12.29;85.12;99107.76;1719951;82;20390;-56
2021/11/03 10:27:11;;;;;;;20.23;17.32;;;;;;;12.48;84.58;99120.44;1715942;82;22052;-55
2021/11/03 10:29:41;;;;;;;20.37;17.65;;;;;;;12.48;84.58;99120.44;1721113;82;21038;-56
2021/11/03 10:32:31;;;;;;;26.25;20.88;;;;;;;12.56;84.19;99128.02;1727607;80;21085;-56
2021/11/03 10:35:20;;;;;;;23.22;17.05;;;;;;;12.60;83.87;99132.23;1688057;83;21080;-56
2021/11/03 10:37:50;;;;;;;23.38;19.48;;;;;;;12.61;83.47;99122.30;1691095;83;20954;-56
2021/11/03 10:40:34;;;;;;;22.37;18.98;;;;;;;12.63;83.03;99136.09;1692520;83;21125;-56
2021/11/03 10:43:02;;;;;;;23.90;18.95;;;;;;;12.65;82.80;99140.05;1686891;83;21594;-55
2021/11/03 10:45:35;;;;;;;18.32;16.15;;;;;;;12.65;82.50;99140.92;1689674;83;21070;-56
2021/11/03 10:48:13;;;;;;;21.17;17.50;;;;;;;12.64;82.34;99149.98;1688584;83;21165;-56
2021/11/03 10:50:58;;;;;;;22.52;18.35;;;;;;;12.63;82.12;99145.55;1689809;83;21604;-56
2021/11/03 10:53:29;;;;;;;22.22;18.20;;;;;;;12.63;82.00;99133.88;1685892;83;21103;-56
2021/11/03 10:56:19;;;;;;;25.35;18.02;;;;;;;12.63;81.83;99139.28;1688116;82;21611;-56
2021/11/03 10:59:00;;;;;;;19.90;16.75;;;;;;;12.71;81.58;99140.98;1692329;83;21083;-55
2021/11/03 11:01:44;;;;;;;18.48;16.67;;;;;;;12.71;81.58;99140.98;1692106;83;20919;-56
2021/11/03 11:04:21;;;;;;;21.52;17.73;;;;;;;12.77;81.62;99152.72;1689253;83;20958;-56
2021/11/03 11:06:52;;;;;;;21.55;17.92;;;;;;;12.82;81.47;99152.81;1695154;83;21114;-55
2021/11/03 11:09:41;;;;;;;23.62;19.92;;;;;;;12.87;81.41;99149.30;1691871;83;20919;-56
2021/11/03 11:12:30;;;;;;;18.48;16.52;;;;;;;12.91;81.15;99154.52;1692875;83;21013;-56
2021/11/03 11:15:07;;;;;;;23.25;18.98;;;;;;;12.95;80.68;99158.72;1690378;83;21796;-55
2021/11/03 11:17:48;;;;;;;19.20;17.27;;;;;;;12.98;80.40;99159.88;1696214;83;21007;-56
2021/11/03 11:20:21;;;;;;;20.35;15.98;;;;;;;13.03;80.27;99157.72;1694619;83;21127;-56
2021/11/03 11:23:15;;;;;;;17.70;14.95;;;;;;;13.09;79.92;99155.98;1696005;83;21032;-56
2021/11/03 11:26:15;;;;;;;15.48;13.25;;;;;;;13.14;79.62;99168.23;1693107;83;21456;-56
2021/11/03 11:29:16;;;;;;;17.05;14.47;;;;;;;13.21;79.32;99175.42;1695096;83;21080;-56
2021/11/03 11:32:06;;;;;;;14.45;12.78;;;;;;;13.28;78.68;99175.39;1691523;83;21346;-55
2021/11/03 11:35:15;;;;;;;13.18;11.90;;;;;;;13.33;78.15;99167.84;1688300;83;21061;-55
2021/11/03 11:38:07;;;;;;;11.83;10.55;;;;;;;13.35;77.72;99164.56;1666707;83;21514;-55
2021/11/03 11:40:48;;;;;;;11.95;10.70;;;;;;;13.36;76.74;99166.27;1689568;83;20966;-56
2021/11/03 11:43:36;;;;;;;11.48;10.48;;;;;;;13.37;76.25;99168.00;1688839;83;21520;-56